sensor_id;sensor_type;location;lat;lon;timestamp;P1;durP1;ratioP1;P2;durP2;ratioP2
12263;SDS011;6194;49.010;8.414;2023-02-28T00:00:30;3.47;;;3.17;;
12263;SDS011;6194;49.010;8.414;2023-02-28T00:02:56;3.57;;;3.30;;
12263;SDS011;6194;49.010;8.414;2023-02-28T00:05:22;3.50;;;3.20;;
12263;SDS011;6194;49.010;8.414;2023-02-28T00:07:49;3.03;;;2.80;;
12263;SDS011;6194;49.010;8.414;2023-02-28T00:10:16;3.20;;;2.80;;
12263;SDS011;6194;49.010;8.414;2023-02-28T00:12:48;3.90;;;3.33;;
12263;SDS011;6194;49.010;8.414;2023-02-28T00:15:14;3.20;;;2.90;;
12263;SDS011;6194;49.010;8.414;2023-02-28T00:17:40;3.30;;;3.10;;
12263;SDS011;6194;49.010;8.414;2023-02-28T00:20:06;3.50;;;3.20;;
12263;SDS011;6194;49.010;8.414;2023-02-28T00:22:35;2.80;;;2.60;;
12263;SDS011;6194;49.010;8.414;2023-02-28T00:25:02;5.53;;;2.77;;
12263;SDS011;6194;49.010;8.414;2023-02-28T00:27:29;3.43;;;3.13;;
12263;SDS011;6194;49.010;8.414;2023-02-28T00:29:55;3.30;;;3.00;;
12263;SDS011;6194;49.010;8.414;2023-02-28T00:32:20;3.33;;;2.93;;
12263;SDS011;6194;49.010;8.414;2023-02-28T00:34:46;3.30;;;3.00;;
12263;SDS011;6194;49.010;8.414;2023-02-28T00:37:11;3.93;;;2.63;;
12263;SDS011;6194;49.010;8.414;2023-02-28T00:39:38;2.73;;;2.53;;
12263;SDS011;6194;49.010;8.414;2023-02-28T00:42:04;3.20;;;2.90;;
12263;SDS011;6194;49.010;8.414;2023-02-28T00:44:31;3.10;;;2.83;;
12263;SDS011;6194;49.010;8.414;2023-02-28T00:46:57;3.07;;;2.53;;
12263;SDS011;6194;49.010;8.414;2023-02-28T00:49:24;3.97;;;3.27;;
12263;SDS011;6194;49.010;8.414;2023-02-28T00:51:50;4.20;;;2.50;;
12263;SDS011;6194;49.010;8.414;2023-02-28T00:54:16;2.90;;;2.70;;
12263;SDS011;6194;49.010;8.414;2023-02-28T00:56:42;3.20;;;2.90;;
12263;SDS011;6194;49.010;8.414;2023-02-28T00:59:08;3.10;;;2.80;;
12263;SDS011;6194;49.010;8.414;2023-02-28T01:01:34;2.80;;;2.60;;
12263;SDS011;6194;49.010;8.414;2023-02-28T01:04:00;3.03;;;2.73;;
12263;SDS011;6194;49.010;8.414;2023-02-28T01:06:25;3.10;;;2.80;;
12263;SDS011;6194;49.010;8.414;2023-02-28T01:08:52;2.97;;;2.77;;
12263;SDS011;6194;49.010;8.414;2023-02-28T01:11:18;2.93;;;2.63;;
12263;SDS011;6194;49.010;8.414;2023-02-28T01:13:44;3.27;;;2.97;;
12263;SDS011;6194;49.010;8.414;2023-02-28T01:16:11;3.50;;;3.20;;
12263;SDS011;6194;49.010;8.414;2023-02-28T01:18:38;3.60;;;3.30;;
12263;SDS011;6194;49.010;8.414;2023-02-28T01:21:04;2.27;;;2.07;;
12263;SDS011;6194;49.010;8.414;2023-02-28T01:23:31;3.20;;;2.90;;
12263;SDS011;6194;49.010;8.414;2023-02-28T01:25:58;3.57;;;3.27;;
12263;SDS011;6194;49.010;8.414;2023-02-28T01:28:39;3.80;;;2.67;;
12263;SDS011;6194;49.010;8.414;2023-02-28T01:31:05;3.17;;;2.87;;
12263;SDS011;6194;49.010;8.414;2023-02-28T01:33:31;3.00;;;2.67;;
12263;SDS011;6194;49.010;8.414;2023-02-28T01:36:01;3.80;;;2.90;;
12263;SDS011;6194;49.010;8.414;2023-02-28T01:38:29;3.27;;;2.87;;
12263;SDS011;6194;49.010;8.414;2023-02-28T01:40:55;3.33;;;3.03;;
12263;SDS011;6194;49.010;8.414;2023-02-28T01:43:27;2.63;;;2.43;;
12263;SDS011;6194;49.010;8.414;2023-02-28T01:45:56;4.03;;;2.83;;
12263;SDS011;6194;49.010;8.414;2023-02-28T01:48:24;2.93;;;2.67;;
12263;SDS011;6194;49.010;8.414;2023-02-28T01:50:52;2.90;;;2.70;;
12263;SDS011;6194;49.010;8.414;2023-02-28T01:53:23;3.13;;;2.83;;
12263;SDS011;6194;49.010;8.414;2023-02-28T01:55:55;3.33;;;3.03;;
12263;SDS011;6194;49.010;8.414;2023-02-28T01:58:21;3.50;;;3.20;;
12263;SDS011;6194;49.010;8.414;2023-02-28T02:00:47;3.00;;;2.80;;
12263;SDS011;6194;49.010;8.414;2023-02-28T02:03:14;3.53;;;3.23;;
12263;SDS011;6194;49.010;8.414;2023-02-28T02:05:46;4.23;;;3.60;;
12263;SDS011;6194;49.010;8.414;2023-02-28T02:08:23;2.27;;;2.00;;
12263;SDS011;6194;49.010;8.414;2023-02-28T02:10:54;3.00;;;2.80;;
12263;SDS011;6194;49.010;8.414;2023-02-28T02:18:55;3.33;;;3.00;;
12263;SDS011;6194;49.010;8.414;2023-02-28T02:24:23;4.17;;;3.77;;
12263;SDS011;6194;49.010;8.414;2023-02-28T02:37:49;3.40;;;3.10;;
12263;SDS011;6194;49.010;8.414;2023-02-28T02:40:23;3.63;;;3.33;;
12263;SDS011;6194;49.010;8.414;2023-02-28T02:43:02;5.20;;;3.80;;
12263;SDS011;6194;49.010;8.414;2023-02-28T02:45:42;3.47;;;3.17;;
12263;SDS011;6194;49.010;8.414;2023-02-28T02:48:19;3.50;;;3.20;;
12263;SDS011;6194;49.010;8.414;2023-02-28T02:50:53;3.83;;;3.00;;
12263;SDS011;6194;49.010;8.414;2023-02-28T02:53:23;3.37;;;2.97;;
12263;SDS011;6194;49.010;8.414;2023-02-28T02:55:54;4.40;;;3.67;;
12263;SDS011;6194;49.010;8.414;2023-02-28T02:58:22;3.60;;;2.60;;
12263;SDS011;6194;49.010;8.414;2023-02-28T03:00:53;3.67;;;3.37;;
12263;SDS011;6194;49.010;8.414;2023-02-28T03:03:22;7.73;;;3.77;;
12263;SDS011;6194;49.010;8.414;2023-02-28T03:05:55;4.60;;;4.17;;
12263;SDS011;6194;49.010;8.414;2023-02-28T03:08:22;2.90;;;2.70;;
12263;SDS011;6194;49.010;8.414;2023-02-28T03:10:48;3.97;;;3.57;;
12263;SDS011;6194;49.010;8.414;2023-02-28T03:21:40;4.30;;;3.33;;
12263;SDS011;6194;49.010;8.414;2023-02-28T03:24:18;5.20;;;4.03;;
12263;SDS011;6194;49.010;8.414;2023-02-28T03:26:45;4.30;;;3.90;;
12263;SDS011;6194;49.010;8.414;2023-02-28T03:29:39;5.43;;;3.80;;
12263;SDS011;6194;49.010;8.414;2023-02-28T03:32:13;6.27;;;3.80;;
12263;SDS011;6194;49.010;8.414;2023-02-28T03:35:08;4.67;;;4.00;;
12263;SDS011;6194;49.010;8.414;2023-02-28T03:37:38;4.40;;;3.93;;
12263;SDS011;6194;49.010;8.414;2023-02-28T03:40:08;4.50;;;3.80;;
12263;SDS011;6194;49.010;8.414;2023-02-28T03:42:37;3.67;;;3.30;;
12263;SDS011;6194;49.010;8.414;2023-02-28T03:45:16;4.40;;;3.77;;
12263;SDS011;6194;49.010;8.414;2023-02-28T03:50:34;3.67;;;3.37;;
12263;SDS011;6194;49.010;8.414;2023-02-28T03:53:10;3.90;;;3.50;;
12263;SDS011;6194;49.010;8.414;2023-02-28T03:55:42;4.07;;;3.67;;
12263;SDS011;6194;49.010;8.414;2023-02-28T04:01:07;4.77;;;3.77;;
12263;SDS011;6194;49.010;8.414;2023-02-28T04:03:37;4.90;;;3.90;;
12263;SDS011;6194;49.010;8.414;2023-02-28T04:06:04;5.20;;;3.80;;
12263;SDS011;6194;49.010;8.414;2023-02-28T04:08:31;3.97;;;3.50;;
12263;SDS011;6194;49.010;8.414;2023-02-28T04:10:59;4.13;;;3.73;;
12263;SDS011;6194;49.010;8.414;2023-02-28T04:13:28;3.97;;;3.60;;
12263;SDS011;6194;49.010;8.414;2023-02-28T04:15:53;4.23;;;3.83;;
12263;SDS011;6194;49.010;8.414;2023-02-28T04:18:19;3.60;;;3.30;;
12263;SDS011;6194;49.010;8.414;2023-02-28T04:20:44;4.67;;;3.60;;
12263;SDS011;6194;49.010;8.414;2023-02-28T04:23:10;5.57;;;3.73;;
12263;SDS011;6194;49.010;8.414;2023-02-28T04:25:36;4.30;;;3.90;;
12263;SDS011;6194;49.010;8.414;2023-02-28T04:28:01;4.43;;;4.03;;
12263;SDS011;6194;49.010;8.414;2023-02-28T04:30:27;4.33;;;3.93;;
12263;SDS011;6194;49.010;8.414;2023-02-28T04:32:54;5.23;;;4.00;;
12263;SDS011;6194;49.010;8.414;2023-02-28T04:35:20;4.30;;;3.90;;
12263;SDS011;6194;49.010;8.414;2023-02-28T04:37:45;4.57;;;4.00;;
12263;SDS011;6194;49.010;8.414;2023-02-28T04:40:11;4.43;;;4.00;;
12263;SDS011;6194;49.010;8.414;2023-02-28T04:42:36;4.97;;;4.23;;
12263;SDS011;6194;49.010;8.414;2023-02-28T04:45:02;4.83;;;4.33;;
12263;SDS011;6194;49.010;8.414;2023-02-28T04:47:28;3.20;;;2.90;;
12263;SDS011;6194;49.010;8.414;2023-02-28T04:49:54;4.13;;;3.83;;
12263;SDS011;6194;49.010;8.414;2023-02-28T04:52:20;5.30;;;4.30;;
12263;SDS011;6194;49.010;8.414;2023-02-28T04:54:45;4.10;;;3.70;;
12263;SDS011;6194;49.010;8.414;2023-02-28T04:57:11;5.23;;;3.87;;
12263;SDS011;6194;49.010;8.414;2023-02-28T04:59:36;5.27;;;4.70;;
12263;SDS011;6194;49.010;8.414;2023-02-28T05:02:02;4.63;;;4.23;;
12263;SDS011;6194;49.010;8.414;2023-02-28T05:04:34;4.00;;;3.60;;
12263;SDS011;6194;49.010;8.414;2023-02-28T05:07:01;6.67;;;4.27;;
12263;SDS011;6194;49.010;8.414;2023-02-28T05:09:28;4.07;;;3.70;;
12263;SDS011;6194;49.010;8.414;2023-02-28T05:11:54;4.90;;;4.00;;
12263;SDS011;6194;49.010;8.414;2023-02-28T05:14:20;3.77;;;3.40;;
12263;SDS011;6194;49.010;8.414;2023-02-28T05:16:47;4.70;;;4.13;;
12263;SDS011;6194;49.010;8.414;2023-02-28T05:19:13;4.73;;;4.10;;
12263;SDS011;6194;49.010;8.414;2023-02-28T05:21:39;4.23;;;3.83;;
12263;SDS011;6194;49.010;8.414;2023-02-28T05:24:12;4.30;;;3.80;;
12263;SDS011;6194;49.010;8.414;2023-02-28T05:26:39;4.77;;;4.30;;
12263;SDS011;6194;49.010;8.414;2023-02-28T05:29:06;3.47;;;3.13;;
12263;SDS011;6194;49.010;8.414;2023-02-28T05:31:32;3.73;;;3.43;;
12263;SDS011;6194;49.010;8.414;2023-02-28T05:33:58;4.27;;;3.87;;
12263;SDS011;6194;49.010;8.414;2023-02-28T05:36:24;4.90;;;4.40;;
12263;SDS011;6194;49.010;8.414;2023-02-28T05:38:50;4.57;;;3.93;;
12263;SDS011;6194;49.010;8.414;2023-02-28T05:41:16;4.57;;;4.10;;
12263;SDS011;6194;49.010;8.414;2023-02-28T05:43:44;4.80;;;4.10;;
12263;SDS011;6194;49.010;8.414;2023-02-28T05:46:10;4.33;;;3.93;;
12263;SDS011;6194;49.010;8.414;2023-02-28T05:48:37;4.37;;;3.97;;
12263;SDS011;6194;49.010;8.414;2023-02-28T05:51:04;3.83;;;3.43;;
12263;SDS011;6194;49.010;8.414;2023-02-28T05:53:31;5.00;;;4.10;;
12263;SDS011;6194;49.010;8.414;2023-02-28T05:55:57;5.67;;;4.63;;
12263;SDS011;6194;49.010;8.414;2023-02-28T05:58:23;5.73;;;4.43;;
12263;SDS011;6194;49.010;8.414;2023-02-28T06:00:50;4.73;;;3.73;;
12263;SDS011;6194;49.010;8.414;2023-02-28T06:03:16;4.60;;;4.13;;
12263;SDS011;6194;49.010;8.414;2023-02-28T06:05:41;4.17;;;3.53;;
12263;SDS011;6194;49.010;8.414;2023-02-28T06:08:07;3.80;;;3.50;;
12263;SDS011;6194;49.010;8.414;2023-02-28T06:10:33;6.47;;;4.77;;
12263;SDS011;6194;49.010;8.414;2023-02-28T06:13:00;4.97;;;4.47;;
12263;SDS011;6194;49.010;8.414;2023-02-28T06:15:27;6.33;;;4.50;;
12263;SDS011;6194;49.010;8.414;2023-02-28T06:17:53;4.57;;;4.00;;
12263;SDS011;6194;49.010;8.414;2023-02-28T06:20:21;4.73;;;4.23;;
12263;SDS011;6194;49.010;8.414;2023-02-28T06:22:47;4.37;;;3.97;;
12263;SDS011;6194;49.010;8.414;2023-02-28T06:25:15;6.20;;;4.83;;
12263;SDS011;6194;49.010;8.414;2023-02-28T06:27:40;4.10;;;3.80;;
12263;SDS011;6194;49.010;8.414;2023-02-28T06:30:06;5.07;;;4.57;;
12263;SDS011;6194;49.010;8.414;2023-02-28T06:32:32;5.90;;;5.30;;
12263;SDS011;6194;49.010;8.414;2023-02-28T06:34:58;5.27;;;4.43;;
12263;SDS011;6194;49.010;8.414;2023-02-28T06:37:24;5.20;;;4.70;;
12263;SDS011;6194;49.010;8.414;2023-02-28T06:39:52;3.60;;;3.30;;
12263;SDS011;6194;49.010;8.414;2023-02-28T06:42:20;4.33;;;3.73;;
12263;SDS011;6194;49.010;8.414;2023-02-28T06:44:47;6.17;;;4.97;;
12263;SDS011;6194;49.010;8.414;2023-02-28T06:47:13;4.23;;;3.83;;
12263;SDS011;6194;49.010;8.414;2023-02-28T06:49:38;3.67;;;3.37;;
12263;SDS011;6194;49.010;8.414;2023-02-28T06:52:04;5.40;;;4.00;;
12263;SDS011;6194;49.010;8.414;2023-02-28T06:54:30;6.60;;;4.30;;
12263;SDS011;6194;49.010;8.414;2023-02-28T06:56:57;10.53;;;4.70;;
12263;SDS011;6194;49.010;8.414;2023-02-28T06:59:23;5.47;;;4.40;;
12263;SDS011;6194;49.010;8.414;2023-02-28T07:01:48;4.17;;;3.43;;
12263;SDS011;6194;49.010;8.414;2023-02-28T07:04:14;8.07;;;3.80;;
12263;SDS011;6194;49.010;8.414;2023-02-28T07:06:40;4.37;;;3.97;;
12263;SDS011;6194;49.010;8.414;2023-02-28T07:09:05;4.67;;;4.23;;
12263;SDS011;6194;49.010;8.414;2023-02-28T07:11:31;4.50;;;4.10;;
12263;SDS011;6194;49.010;8.414;2023-02-28T07:13:57;6.00;;;4.80;;
12263;SDS011;6194;49.010;8.414;2023-02-28T07:16:23;5.03;;;4.10;;
12263;SDS011;6194;49.010;8.414;2023-02-28T07:18:49;4.73;;;3.73;;
12263;SDS011;6194;49.010;8.414;2023-02-28T07:21:17;4.43;;;4.00;;
12263;SDS011;6194;49.010;8.414;2023-02-28T07:23:42;6.83;;;4.13;;
12263;SDS011;6194;49.010;8.414;2023-02-28T07:26:13;5.03;;;4.27;;
12263;SDS011;6194;49.010;8.414;2023-02-28T07:28:42;4.50;;;4.10;;
12263;SDS011;6194;49.010;8.414;2023-02-28T07:31:09;4.77;;;4.37;;
12263;SDS011;6194;49.010;8.414;2023-02-28T07:33:35;5.03;;;4.57;;
12263;SDS011;6194;49.010;8.414;2023-02-28T07:36:04;4.77;;;4.30;;
12263;SDS011;6194;49.010;8.414;2023-02-28T07:38:36;4.73;;;4.13;;
12263;SDS011;6194;49.010;8.414;2023-02-28T07:41:02;4.20;;;3.73;;
12263;SDS011;6194;49.010;8.414;2023-02-28T07:43:33;4.17;;;3.80;;
12263;SDS011;6194;49.010;8.414;2023-02-28T07:46:09;6.93;;;4.33;;
12263;SDS011;6194;49.010;8.414;2023-02-28T07:48:36;5.23;;;3.90;;
12263;SDS011;6194;49.010;8.414;2023-02-28T07:51:02;5.10;;;4.60;;
12263;SDS011;6194;49.010;8.414;2023-02-28T07:53:28;5.47;;;4.30;;
12263;SDS011;6194;49.010;8.414;2023-02-28T07:55:55;5.47;;;3.80;;
12263;SDS011;6194;49.010;8.414;2023-02-28T07:58:22;5.73;;;4.40;;
12263;SDS011;6194;49.010;8.414;2023-02-28T08:00:49;5.50;;;4.93;;
12263;SDS011;6194;49.010;8.414;2023-02-28T08:03:14;4.93;;;4.43;;
12263;SDS011;6194;49.010;8.414;2023-02-28T08:05:41;3.60;;;3.30;;
12263;SDS011;6194;49.010;8.414;2023-02-28T08:08:07;5.80;;;4.60;;
12263;SDS011;6194;49.010;8.414;2023-02-28T08:10:33;3.47;;;3.17;;
12263;SDS011;6194;49.010;8.414;2023-02-28T08:12:59;5.73;;;5.00;;
12263;SDS011;6194;49.010;8.414;2023-02-28T08:15:25;4.50;;;4.10;;
12263;SDS011;6194;49.010;8.414;2023-02-28T08:17:51;5.50;;;4.33;;
12263;SDS011;6194;49.010;8.414;2023-02-28T08:20:16;5.70;;;5.07;;
12263;SDS011;6194;49.010;8.414;2023-02-28T08:22:42;5.20;;;4.43;;
12263;SDS011;6194;49.010;8.414;2023-02-28T08:25:08;5.20;;;4.70;;
12263;SDS011;6194;49.010;8.414;2023-02-28T08:27:34;3.87;;;3.57;;
12263;SDS011;6194;49.010;8.414;2023-02-28T08:30:00;6.03;;;3.63;;
12263;SDS011;6194;49.010;8.414;2023-02-28T08:32:26;5.83;;;4.43;;
12263;SDS011;6194;49.010;8.414;2023-02-28T08:34:52;17.77;;;4.53;;
12263;SDS011;6194;49.010;8.414;2023-02-28T08:37:17;4.13;;;3.77;;
12263;SDS011;6194;49.010;8.414;2023-02-28T08:39:43;5.57;;;4.40;;
12263;SDS011;6194;49.010;8.414;2023-02-28T08:42:08;5.03;;;4.63;;
12263;SDS011;6194;49.010;8.414;2023-02-28T08:44:34;5.03;;;3.73;;
12263;SDS011;6194;49.010;8.414;2023-02-28T08:47:00;6.20;;;4.77;;
12263;SDS011;6194;49.010;8.414;2023-02-28T08:49:25;4.77;;;4.27;;
12263;SDS011;6194;49.010;8.414;2023-02-28T08:51:51;7.47;;;5.30;;
12263;SDS011;6194;49.010;8.414;2023-02-28T08:54:17;4.70;;;4.20;;
12263;SDS011;6194;49.010;8.414;2023-02-28T08:56:44;5.73;;;5.13;;
12263;SDS011;6194;49.010;8.414;2023-02-28T08:59:11;6.10;;;5.50;;
12263;SDS011;6194;49.010;8.414;2023-02-28T09:01:36;5.83;;;5.17;;
12263;SDS011;6194;49.010;8.414;2023-02-28T09:04:02;5.60;;;4.17;;
12263;SDS011;6194;49.010;8.414;2023-02-28T09:06:28;5.47;;;4.60;;
12263;SDS011;6194;49.010;8.414;2023-02-28T09:08:57;7.07;;;5.40;;
12263;SDS011;6194;49.010;8.414;2023-02-28T09:11:23;4.90;;;4.50;;
12263;SDS011;6194;49.010;8.414;2023-02-28T09:13:49;5.80;;;5.20;;
12263;SDS011;6194;49.010;8.414;2023-02-28T09:16:15;5.93;;;5.33;;
12263;SDS011;6194;49.010;8.414;2023-02-28T09:18:42;5.80;;;5.17;;
12263;SDS011;6194;49.010;8.414;2023-02-28T09:21:09;5.90;;;5.20;;
12263;SDS011;6194;49.010;8.414;2023-02-28T09:23:39;4.83;;;4.43;;
12263;SDS011;6194;49.010;8.414;2023-02-28T09:26:05;5.37;;;4.87;;
12263;SDS011;6194;49.010;8.414;2023-02-28T09:28:31;5.90;;;5.20;;
12263;SDS011;6194;49.010;8.414;2023-02-28T09:30:57;5.53;;;4.60;;
12263;SDS011;6194;49.010;8.414;2023-02-28T09:33:23;5.87;;;5.30;;
12263;SDS011;6194;49.010;8.414;2023-02-28T09:35:50;5.50;;;5.00;;
12263;SDS011;6194;49.010;8.414;2023-02-28T09:38:22;4.90;;;4.10;;
12263;SDS011;6194;49.010;8.414;2023-02-28T09:40:58;5.83;;;5.27;;
12263;SDS011;6194;49.010;8.414;2023-02-28T09:43:26;7.03;;;4.57;;
12263;SDS011;6194;49.010;8.414;2023-02-28T09:48:45;7.30;;;6.10;;
12263;SDS011;6194;49.010;8.414;2023-02-28T09:53:50;5.77;;;5.17;;
12263;SDS011;6194;49.010;8.414;2023-02-28T09:56:28;5.50;;;4.43;;
12263;SDS011;6194;49.010;8.414;2023-02-28T09:59:06;7.23;;;6.53;;
12263;SDS011;6194;49.010;8.414;2023-02-28T10:01:56;6.50;;;5.03;;
12263;SDS011;6194;49.010;8.414;2023-02-28T10:04:41;7.30;;;5.53;;
12263;SDS011;6194;49.010;8.414;2023-02-28T10:07:21;7.87;;;5.97;;
12263;SDS011;6194;49.010;8.414;2023-02-28T10:09:56;7.47;;;6.17;;
12263;SDS011;6194;49.010;8.414;2023-02-28T10:12:25;6.07;;;4.83;;
12263;SDS011;6194;49.010;8.414;2023-02-28T10:14:54;6.57;;;5.73;;
12263;SDS011;6194;49.010;8.414;2023-02-28T10:17:27;5.83;;;5.23;;
12263;SDS011;6194;49.010;8.414;2023-02-28T10:20:02;6.77;;;5.87;;
12263;SDS011;6194;49.010;8.414;2023-02-28T10:22:53;4.90;;;4.40;;
12263;SDS011;6194;49.010;8.414;2023-02-28T10:25:28;6.87;;;5.87;;
12263;SDS011;6194;49.010;8.414;2023-02-28T10:27:59;6.73;;;5.43;;
12263;SDS011;6194;49.010;8.414;2023-02-28T10:30:36;6.30;;;5.30;;
12263;SDS011;6194;49.010;8.414;2023-02-28T10:33:08;6.77;;;5.77;;
12263;SDS011;6194;49.010;8.414;2023-02-28T10:35:59;7.30;;;5.93;;
12263;SDS011;6194;49.010;8.414;2023-02-28T10:38:27;7.10;;;5.60;;
12263;SDS011;6194;49.010;8.414;2023-02-28T10:41:04;6.53;;;5.53;;
12263;SDS011;6194;49.010;8.414;2023-02-28T10:43:30;5.90;;;5.00;;
12263;SDS011;6194;49.010;8.414;2023-02-28T10:48:39;6.87;;;5.77;;
12263;SDS011;6194;49.010;8.414;2023-02-28T10:51:34;9.20;;;5.40;;
12263;SDS011;6194;49.010;8.414;2023-02-28T10:54:03;5.43;;;4.63;;
12263;SDS011;6194;49.010;8.414;2023-02-28T10:56:30;5.00;;;4.50;;
12263;SDS011;6194;49.010;8.414;2023-02-28T11:01:42;5.20;;;4.70;;
12263;SDS011;6194;49.010;8.414;2023-02-28T11:04:19;6.30;;;4.17;;
12263;SDS011;6194;49.010;8.414;2023-02-28T11:07:01;5.87;;;5.33;;
12263;SDS011;6194;49.010;8.414;2023-02-28T11:09:30;6.50;;;4.90;;
12263;SDS011;6194;49.010;8.414;2023-02-28T11:12:04;7.10;;;5.63;;
12263;SDS011;6194;49.010;8.414;2023-02-28T11:14:35;6.60;;;5.70;;
12263;SDS011;6194;49.010;8.414;2023-02-28T11:17:19;7.20;;;5.33;;
12263;SDS011;6194;49.010;8.414;2023-02-28T11:19:51;6.27;;;5.50;;
12263;SDS011;6194;49.010;8.414;2023-02-28T11:22:20;6.80;;;5.30;;
12263;SDS011;6194;49.010;8.414;2023-02-28T11:24:50;6.23;;;5.63;;
12263;SDS011;6194;49.010;8.414;2023-02-28T11:29:57;6.20;;;5.60;;
12263;SDS011;6194;49.010;8.414;2023-02-28T11:32:24;8.57;;;6.73;;
12263;SDS011;6194;49.010;8.414;2023-02-28T11:37:34;7.00;;;6.00;;
12263;SDS011;6194;49.010;8.414;2023-02-28T11:40:00;9.47;;;6.17;;
12263;SDS011;6194;49.010;8.414;2023-02-28T11:42:44;7.87;;;5.63;;
12263;SDS011;6194;49.010;8.414;2023-02-28T11:45:48;7.13;;;6.10;;
12263;SDS011;6194;49.010;8.414;2023-02-28T11:54:41;6.27;;;5.67;;
12263;SDS011;6194;49.010;8.414;2023-02-28T11:57:20;7.13;;;6.43;;
12263;SDS011;6194;49.010;8.414;2023-02-28T12:00:03;7.50;;;6.50;;
12263;SDS011;6194;49.010;8.414;2023-02-28T12:05:31;6.67;;;6.00;;
12263;SDS011;6194;49.010;8.414;2023-02-28T12:08:21;8.47;;;7.20;;
12263;SDS011;6194;49.010;8.414;2023-02-28T12:19:09;8.30;;;6.57;;
12263;SDS011;6194;49.010;8.414;2023-02-28T12:24:49;7.90;;;7.10;;
12263;SDS011;6194;49.010;8.414;2023-02-28T12:27:19;7.87;;;7.07;;
12263;SDS011;6194;49.010;8.414;2023-02-28T12:29:56;7.53;;;6.80;;
12263;SDS011;6194;49.010;8.414;2023-02-28T12:32:30;7.50;;;6.80;;
12263;SDS011;6194;49.010;8.414;2023-02-28T12:35:22;7.73;;;7.03;;
12263;SDS011;6194;49.010;8.414;2023-02-28T12:37:49;7.30;;;6.60;;
12263;SDS011;6194;49.010;8.414;2023-02-28T12:40:22;7.17;;;6.43;;
12263;SDS011;6194;49.010;8.414;2023-02-28T12:43:02;7.20;;;4.97;;
12263;SDS011;6194;49.010;8.414;2023-02-28T12:45:34;6.20;;;5.70;;
12263;SDS011;6194;49.010;8.414;2023-02-28T12:48:42;7.50;;;6.30;;
12263;SDS011;6194;49.010;8.414;2023-02-28T12:51:11;6.63;;;5.93;;
12263;SDS011;6194;49.010;8.414;2023-02-28T12:59:13;5.63;;;4.93;;
12263;SDS011;6194;49.010;8.414;2023-02-28T13:04:42;5.63;;;5.13;;
12263;SDS011;6194;49.010;8.414;2023-02-28T13:09:59;6.20;;;5.60;;
12263;SDS011;6194;49.010;8.414;2023-02-28T13:12:28;5.90;;;5.20;;
12263;SDS011;6194;49.010;8.414;2023-02-28T13:17:47;5.37;;;4.87;;
12263;SDS011;6194;49.010;8.414;2023-02-28T13:20:19;6.63;;;5.93;;
12263;SDS011;6194;49.010;8.414;2023-02-28T13:22:52;7.00;;;5.87;;
12263;SDS011;6194;49.010;8.414;2023-02-28T13:27:51;6.40;;;5.73;;
12263;SDS011;6194;49.010;8.414;2023-02-28T13:36:12;7.97;;;6.80;;
12263;SDS011;6194;49.010;8.414;2023-02-28T13:46:30;6.97;;;6.37;;
12263;SDS011;6194;49.010;8.414;2023-02-28T13:49:18;6.90;;;6.20;;
12263;SDS011;6194;49.010;8.414;2023-02-28T13:57:48;7.40;;;6.30;;
12263;SDS011;6194;49.010;8.414;2023-02-28T14:06:07;6.43;;;5.77;;
12263;SDS011;6194;49.010;8.414;2023-02-28T14:08:48;7.00;;;6.33;;
12263;SDS011;6194;49.010;8.414;2023-02-28T14:11:38;7.40;;;6.30;;
12263;SDS011;6194;49.010;8.414;2023-02-28T14:14:06;9.37;;;6.53;;
12263;SDS011;6194;49.010;8.414;2023-02-28T14:16:38;7.57;;;6.87;;
12263;SDS011;6194;49.010;8.414;2023-02-28T14:19:09;6.83;;;6.17;;
12263;SDS011;6194;49.010;8.414;2023-02-28T14:21:52;7.67;;;6.70;;
12263;SDS011;6194;49.010;8.414;2023-02-28T14:37:41;9.07;;;8.07;;
12263;SDS011;6194;49.010;8.414;2023-02-28T14:40:21;7.87;;;7.07;;
12263;SDS011;6194;49.010;8.414;2023-02-28T14:43:04;6.33;;;5.63;;
12263;SDS011;6194;49.010;8.414;2023-02-28T14:45:31;7.70;;;6.40;;
12263;SDS011;6194;49.010;8.414;2023-02-28T14:47:59;11.73;;;5.20;;
12263;SDS011;6194;49.010;8.414;2023-02-28T14:50:27;8.37;;;7.57;;
12263;SDS011;6194;49.010;8.414;2023-02-28T14:52:56;8.73;;;6.50;;
12263;SDS011;6194;49.010;8.414;2023-02-28T14:55:25;6.50;;;5.90;;
12263;SDS011;6194;49.010;8.414;2023-02-28T14:57:57;7.00;;;6.30;;
12263;SDS011;6194;49.010;8.414;2023-02-28T15:02:52;6.63;;;6.03;;
12263;SDS011;6194;49.010;8.414;2023-02-28T15:08:03;8.60;;;6.30;;
12263;SDS011;6194;49.010;8.414;2023-02-28T15:10:31;7.37;;;6.63;;
12263;SDS011;6194;49.010;8.414;2023-02-28T15:13:01;7.97;;;6.93;;
12263;SDS011;6194;49.010;8.414;2023-02-28T15:18:48;9.60;;;7.17;;
12263;SDS011;6194;49.010;8.414;2023-02-28T15:23:44;8.13;;;7.03;;
12263;SDS011;6194;49.010;8.414;2023-02-28T15:26:20;7.60;;;6.80;;
12263;SDS011;6194;49.010;8.414;2023-02-28T15:28:57;7.90;;;7.20;;
12263;SDS011;6194;49.010;8.414;2023-02-28T15:31:34;7.97;;;7.17;;
12263;SDS011;6194;49.010;8.414;2023-02-28T15:34:06;8.27;;;7.47;;
12263;SDS011;6194;49.010;8.414;2023-02-28T15:36:37;7.87;;;7.17;;
12263;SDS011;6194;49.010;8.414;2023-02-28T15:39:17;8.40;;;7.53;;
12263;SDS011;6194;49.010;8.414;2023-02-28T15:41:48;6.83;;;6.13;;
12263;SDS011;6194;49.010;8.414;2023-02-28T15:44:18;9.60;;;7.60;;
12263;SDS011;6194;49.010;8.414;2023-02-28T15:49:51;9.07;;;7.03;;
12263;SDS011;6194;49.010;8.414;2023-02-28T15:55:06;8.13;;;7.30;;
12263;SDS011;6194;49.010;8.414;2023-02-28T15:57:56;12.37;;;7.80;;
12263;SDS011;6194;49.010;8.414;2023-02-28T16:00:26;8.73;;;7.83;;
12263;SDS011;6194;49.010;8.414;2023-02-28T16:02:58;7.77;;;6.97;;
12263;SDS011;6194;49.010;8.414;2023-02-28T16:05:25;7.93;;;6.50;;
12263;SDS011;6194;49.010;8.414;2023-02-28T16:07:53;8.13;;;7.33;;
12263;SDS011;6194;49.010;8.414;2023-02-28T16:10:20;5.87;;;5.33;;
12263;SDS011;6194;49.010;8.414;2023-02-28T16:12:52;8.10;;;7.00;;
12263;SDS011;6194;49.010;8.414;2023-02-28T16:17:46;7.63;;;6.73;;
12263;SDS011;6194;49.010;8.414;2023-02-28T16:20:13;8.13;;;7.17;;
12263;SDS011;6194;49.010;8.414;2023-02-28T16:22:42;8.40;;;7.50;;
12263;SDS011;6194;49.010;8.414;2023-02-28T16:25:11;8.50;;;7.60;;
12263;SDS011;6194;49.010;8.414;2023-02-28T16:27:37;8.87;;;8.00;;
12263;SDS011;6194;49.010;8.414;2023-02-28T16:30:04;8.37;;;7.47;;
12263;SDS011;6194;49.010;8.414;2023-02-28T16:32:31;7.07;;;6.17;;
12263;SDS011;6194;49.010;8.414;2023-02-28T16:34:59;8.63;;;7.77;;
12263;SDS011;6194;49.010;8.414;2023-02-28T16:37:26;8.57;;;7.47;;
12263;SDS011;6194;49.010;8.414;2023-02-28T16:39:53;9.30;;;7.83;;
12263;SDS011;6194;49.010;8.414;2023-02-28T16:42:20;9.13;;;8.23;;
12263;SDS011;6194;49.010;8.414;2023-02-28T16:44:49;8.57;;;7.77;;
12263;SDS011;6194;49.010;8.414;2023-02-28T16:47:15;8.10;;;7.30;;
12263;SDS011;6194;49.010;8.414;2023-02-28T16:49:41;8.13;;;6.93;;
12263;SDS011;6194;49.010;8.414;2023-02-28T16:52:08;10.70;;;8.10;;
12263;SDS011;6194;49.010;8.414;2023-02-28T16:54:35;9.30;;;8.40;;
12263;SDS011;6194;49.010;8.414;2023-02-28T16:57:00;6.03;;;5.07;;
12263;SDS011;6194;49.010;8.414;2023-02-28T16:59:27;8.33;;;7.50;;
12263;SDS011;6194;49.010;8.414;2023-02-28T17:01:54;9.20;;;8.30;;
12263;SDS011;6194;49.010;8.414;2023-02-28T17:04:22;8.27;;;7.33;;
12263;SDS011;6194;49.010;8.414;2023-02-28T17:06:49;5.90;;;5.40;;
12263;SDS011;6194;49.010;8.414;2023-02-28T17:09:19;7.67;;;6.87;;
12263;SDS011;6194;49.010;8.414;2023-02-28T17:11:46;8.30;;;7.37;;
12263;SDS011;6194;49.010;8.414;2023-02-28T17:14:13;7.83;;;7.03;;
12263;SDS011;6194;49.010;8.414;2023-02-28T17:16:39;10.73;;;8.63;;
12263;SDS011;6194;49.010;8.414;2023-02-28T17:19:09;8.60;;;6.70;;
12263;SDS011;6194;49.010;8.414;2023-02-28T17:21:37;9.03;;;6.83;;
12263;SDS011;6194;49.010;8.414;2023-02-28T17:24:02;8.10;;;7.30;;
12263;SDS011;6194;49.010;8.414;2023-02-28T17:26:28;9.47;;;7.60;;
12263;SDS011;6194;49.010;8.414;2023-02-28T17:28:55;7.60;;;6.80;;
12263;SDS011;6194;49.010;8.414;2023-02-28T17:31:22;7.67;;;6.97;;
12263;SDS011;6194;49.010;8.414;2023-02-28T17:33:48;8.33;;;7.50;;
12263;SDS011;6194;49.010;8.414;2023-02-28T17:36:15;7.03;;;6.33;;
12263;SDS011;6194;49.010;8.414;2023-02-28T17:38:42;8.33;;;7.37;;